sensor_id;sensor_type;location;lat;lon;timestamp;pressure;altitude;pressure_sealevel;temperature;humidity
23733;BME280;12047;53.450;-2.286;2023-01-26T00:03:28;102925.06;;;9.26;100.00
23733;BME280;12047;53.450;-2.286;2023-01-26T00:08:29;102909.25;;;9.24;100.00
23733;BME280;12047;53.450;-2.286;2023-01-26T00:13:30;102910.31;;;9.03;100.00
23733;BME280;12047;53.450;-2.286;2023-01-26T00:18:31;102907.00;;;8.62;100.00
23733;BME280;12047;53.450;-2.286;2023-01-26T00:23:33;102899.06;;;8.80;100.00
23733;BME280;12047;53.450;-2.286;2023-01-26T00:28:34;102913.00;;;8.46;100.00
23733;BME280;12047;53.450;-2.286;2023-01-26T00:33:34;102922.47;;;7.30;100.00
23733;BME280;12047;53.450;-2.286;2023-01-26T00:38:35;102923.28;;;7.93;100.00
23733;BME280;12047;53.450;-2.286;2023-01-26T00:43:36;102920.00;;;8.85;100.00
23733;BME280;12047;53.450;-2.286;2023-01-26T00:48:36;102925.22;;;8.86;100.00
23733;BME280;12047;53.450;-2.286;2023-01-26T00:53:37;102920.06;;;8.83;100.00
23733;BME280;12047;53.450;-2.286;2023-01-26T00:58:37;102924.44;;;8.66;100.00
23733;BME280;12047;53.450;-2.286;2023-01-26T01:03:39;102921.78;;;8.47;100.00
23733;BME280;12047;53.450;-2.286;2023-01-26T01:08:40;102911.38;;;8.24;100.00
23733;BME280;12047;53.450;-2.286;2023-01-26T01:13:41;102914.59;;;7.91;100.00
23733;BME280;12047;53.450;-2.286;2023-01-26T01:18:42;102902.59;;;8.62;100.00
23733;BME280;12047;53.450;-2.286;2023-01-26T01:23:43;102899.72;;;8.48;100.00
23733;BME280;12047;53.450;-2.286;2023-01-26T01:28:44;102910.16;;;8.12;100.00
23733;BME280;12047;53.450;-2.286;2023-01-26T01:33:45;102920.00;;;8.08;100.00
23733;BME280;12047;53.450;-2.286;2023-01-26T01:38:46;102922.25;;;7.77;100.00
23733;BME280;12047;53.450;-2.286;2023-01-26T01:43:47;102913.59;;;7.73;100.00
23733;BME280;12047;53.450;-2.286;2023-01-26T01:48:59;102916.84;;;7.18;100.00
23733;BME280;12047;53.450;-2.286;2023-01-26T01:54:13;102903.38;;;7.45;100.00
23733;BME280;12047;53.450;-2.286;2023-01-26T01:59:15;102909.53;;;7.87;100.00
23733;BME280;12047;53.450;-2.286;2023-01-26T02:04:20;102916.16;;;7.34;100.00
23733;BME280;12047;53.450;-2.286;2023-01-26T02:09:27;102921.47;;;6.91;100.00
23733;BME280;12047;53.450;-2.286;2023-01-26T02:14:51;102928.13;;;7.63;100.00
23733;BME280;12047;53.450;-2.286;2023-01-26T02:20:13;102928.91;;;8.06;100.00
23733;BME280;12047;53.450;-2.286;2023-01-26T02:30:27;102932.69;;;8.19;100.00
23733;BME280;12047;53.450;-2.286;2023-01-26T02:35:28;102937.34;;;7.94;100.00
23733;BME280;12047;53.450;-2.286;2023-01-26T02:40:36;102950.91;;;7.44;100.00
23733;BME280;12047;53.450;-2.286;2023-01-26T02:45:39;102960.25;;;7.93;100.00
23733;BME280;12047;53.450;-2.286;2023-01-26T02:50:40;102968.63;;;7.62;100.00
23733;BME280;12047;53.450;-2.286;2023-01-26T02:55:41;102965.09;;;6.98;100.00
23733;BME280;12047;53.450;-2.286;2023-01-26T03:00:42;102956.06;;;7.89;100.00
23733;BME280;12047;53.450;-2.286;2023-01-26T03:05:43;102951.25;;;7.14;100.00
23733;BME280;12047;53.450;-2.286;2023-01-26T03:10:43;102967.50;;;7.68;100.00
23733;BME280;12047;53.450;-2.286;2023-01-26T03:15:46;102974.66;;;7.44;100.00
23733;BME280;12047;53.450;-2.286;2023-01-26T03:20:51;102970.91;;;7.92;100.00
23733;BME280;12047;53.450;-2.286;2023-01-26T03:26:10;102973.03;;;6.74;100.00
23733;BME280;12047;53.450;-2.286;2023-01-26T03:31:29;102972.09;;;7.21;100.00
23733;BME280;12047;53.450;-2.286;2023-01-26T03:36:30;102973.91;;;7.62;100.00
23733;BME280;12047;53.450;-2.286;2023-01-26T03:41:31;102988.72;;;7.23;100.00
23733;BME280;12047;53.450;-2.286;2023-01-26T03:46:50;102985.75;;;7.52;100.00
23733;BME280;12047;53.450;-2.286;2023-01-26T03:52:08;102976.91;;;7.53;100.00
23733;BME280;12047;53.450;-2.286;2023-01-26T03:57:28;102983.25;;;7.27;100.00
23733;BME280;12047;53.450;-2.286;2023-01-26T04:02:29;102997.59;;;7.20;100.00
23733;BME280;12047;53.450;-2.286;2023-01-26T04:07:47;103011.28;;;7.30;100.00
23733;BME280;12047;53.450;-2.286;2023-01-26T04:13:07;102990.13;;;7.53;100.00
23733;BME280;12047;53.450;-2.286;2023-01-26T04:18:26;102992.84;;;6.85;100.00
23733;BME280;12047;53.450;-2.286;2023-01-26T04:23:45;102981.47;;;7.49;100.00
23733;BME280;12047;53.450;-2.286;2023-01-26T04:28:49;102982.31;;;7.50;100.00
23733;BME280;12047;53.450;-2.286;2023-01-26T04:33:50;102991.56;;;6.95;100.00
23733;BME280;12047;53.450;-2.286;2023-01-26T04:38:50;102984.34;;;7.22;100.00
23733;BME280;12047;53.450;-2.286;2023-01-26T04:43:51;102991.84;;;7.32;100.00
23733;BME280;12047;53.450;-2.286;2023-01-26T04:48:52;103005.50;;;7.20;100.00
23733;BME280;12047;53.450;-2.286;2023-01-26T04:53:52;103011.13;;;7.34;100.00
23733;BME280;12047;53.450;-2.286;2023-01-26T04:58:54;103017.31;;;6.17;100.00
23733;BME280;12047;53.450;-2.286;2023-01-26T05:03:58;103024.41;;;7.31;100.00
23733;BME280;12047;53.450;-2.286;2023-01-26T05:08:59;103022.38;;;7.60;100.00
23733;BME280;12047;53.450;-2.286;2023-01-26T05:13:59;103023.00;;;7.44;100.00
23733;BME280;12047;53.450;-2.286;2023-01-26T05:19:00;103016.78;;;7.45;100.00
23733;BME280;12047;53.450;-2.286;2023-01-26T05:24:01;103003.03;;;7.81;100.00
23733;BME280;12047;53.450;-2.286;2023-01-26T05:29:01;103010.66;;;7.23;100.00
23733;BME280;12047;53.450;-2.286;2023-01-26T05:34:02;103025.44;;;7.71;100.00
23733;BME280;12047;53.450;-2.286;2023-01-26T05:39:02;103035.19;;;7.69;100.00
23733;BME280;12047;53.450;-2.286;2023-01-26T05:44:03;103042.09;;;8.35;100.00
23733;BME280;12047;53.450;-2.286;2023-01-26T05:49:04;103050.41;;;7.84;100.00
23733;BME280;12047;53.450;-2.286;2023-01-26T05:54:04;103056.47;;;8.48;100.00
23733;BME280;12047;53.450;-2.286;2023-01-26T05:59:05;103046.09;;;8.64;100.00
23733;BME280;12047;53.450;-2.286;2023-01-26T06:04:05;103052.41;;;8.19;100.00
23733;BME280;12047;53.450;-2.286;2023-01-26T06:09:06;103042.94;;;8.15;100.00
23733;BME280;12047;53.450;-2.286;2023-01-26T06:14:07;103040.41;;;8.53;100.00
23733;BME280;12047;53.450;-2.286;2023-01-26T06:19:09;103051.78;;;8.55;100.00
23733;BME280;12047;53.450;-2.286;2023-01-26T06:24:10;103051.88;;;8.33;100.00
23733;BME280;12047;53.450;-2.286;2023-01-26T06:29:11;103050.50;;;7.61;100.00
23733;BME280;12047;53.450;-2.286;2023-01-26T06:34:11;103042.50;;;8.25;100.00
23733;BME280;12047;53.450;-2.286;2023-01-26T06:39:12;103046.19;;;9.00;100.00
23733;BME280;12047;53.450;-2.286;2023-01-26T06:44:16;103071.28;;;8.52;100.00
23733;BME280;12047;53.450;-2.286;2023-01-26T06:49:16;103058.78;;;8.56;100.00
23733;BME280;12047;53.450;-2.286;2023-01-26T06:54:17;103058.09;;;8.71;100.00
23733;BME280;12047;53.450;-2.286;2023-01-26T06:59:19;103062.72;;;8.66;100.00
23733;BME280;12047;53.450;-2.286;2023-01-26T07:04:26;103067.94;;;8.68;100.00
23733;BME280;12047;53.450;-2.286;2023-01-26T07:09:27;103073.75;;;8.15;100.00
23733;BME280;12047;53.450;-2.286;2023-01-26T07:14:33;103082.84;;;7.66;100.00
23733;BME280;12047;53.450;-2.286;2023-01-26T07:19:49;103097.06;;;8.26;100.00
23733;BME280;12047;53.450;-2.286;2023-01-26T07:25:02;103102.38;;;9.43;100.00
23733;BME280;12047;53.450;-2.286;2023-01-26T07:30:06;103110.00;;;8.93;100.00
23733;BME280;12047;53.450;-2.286;2023-01-26T07:35:10;103100.19;;;9.15;100.00
23733;BME280;12047;53.450;-2.286;2023-01-26T07:40:11;103107.47;;;9.29;100.00
23733;BME280;12047;53.450;-2.286;2023-01-26T07:45:12;103112.19;;;9.22;100.00
23733;BME280;12047;53.450;-2.286;2023-01-26T07:50:13;103112.63;;;9.32;100.00
23733;BME280;12047;53.450;-2.286;2023-01-26T07:55:21;103127.31;;;9.00;100.00
23733;BME280;12047;53.450;-2.286;2023-01-26T08:00:29;103124.53;;;8.64;100.00
23733;BME280;12047;53.450;-2.286;2023-01-26T08:05:31;103131.94;;;9.15;100.00
23733;BME280;12047;53.450;-2.286;2023-01-26T08:16:46;103126.00;;;9.29;100.00
23733;BME280;12047;53.450;-2.286;2023-01-26T08:22:03;103118.88;;;9.67;100.00
23733;BME280;12047;53.450;-2.286;2023-01-26T08:27:14;103124.69;;;9.56;100.00
23733;BME280;12047;53.450;-2.286;2023-01-26T08:32:33;103116.47;;;9.62;100.00
23733;BME280;12047;53.450;-2.286;2023-01-26T09:20:37;103168.41;;;9.27;100.00
23733;BME280;12047;53.450;-2.286;2023-01-26T09:38:11;103191.56;;;9.97;100.00
23733;BME280;12047;53.450;-2.286;2023-01-26T09:44:01;103186.22;;;10.35;100.00
23733;BME280;12047;53.450;-2.286;2023-01-26T09:55:22;103199.72;;;10.30;100.00
23733;BME280;12047;53.450;-2.286;2023-01-26T10:00:54;103201.69;;;10.61;100.00
23733;BME280;12047;53.450;-2.286;2023-01-26T10:47:04;103198.06;;;10.45;100.00
23733;BME280;12047;53.450;-2.286;2023-01-26T11:09:51;103206.53;;;11.53;100.00
23733;BME280;12047;53.450;-2.286;2023-01-26T11:43:03;103187.69;;;11.74;100.00
23733;BME280;12047;53.450;-2.286;2023-01-26T12:16:42;103164.56;;;12.07;100.00
23733;BME280;12047;53.450;-2.286;2023-01-26T12:21:47;103160.13;;;12.96;100.00
23733;BME280;12047;53.450;-2.286;2023-01-26T12:26:55;103164.56;;;13.67;100.00
23733;BME280;12047;53.450;-2.286;2023-01-26T12:32:20;103159.69;;;13.18;100.00
23733;BME280;12047;53.450;-2.286;2023-01-26T12:43:56;103153.94;;;12.95;100.00
23733;BME280;12047;53.450;-2.286;2023-01-26T13:06:44;103138.88;;;12.66;100.00
23733;BME280;12047;53.450;-2.286;2023-01-26T13:18:19;103116.91;;;13.21;100.00
23733;BME280;12047;53.450;-2.286;2023-01-26T13:35:46;103091.31;;;13.04;100.00
23733;BME280;12047;53.450;-2.286;2023-01-26T15:32:03;103136.88;;;13.28;100.00
23733;BME280;12047;53.450;-2.286;2023-01-26T15:56:37;103143.97;;;12.99;100.00
23733;BME280;12047;53.450;-2.286;2023-01-26T16:01:47;103136.44;;;12.91;100.00
23733;BME280;12047;53.450;-2.286;2023-01-26T16:07:43;103118.38;;;12.54;100.00
23733;BME280;12047;53.450;-2.286;2023-01-26T16:36:22;103108.75;;;12.51;100.00
23733;BME280;12047;53.450;-2.286;2023-01-26T16:47:29;103119.56;;;11.88;100.00
23733;BME280;12047;53.450;-2.286;2023-01-26T16:52:56;103131.81;;;12.07;100.00
23733;BME280;12047;53.450;-2.286;2023-01-26T17:04:15;103151.59;;;12.47;100.00
23733;BME280;12047;53.450;-2.286;2023-01-26T17:15:32;103173.88;;;12.60;100.00
23733;BME280;12047;53.450;-2.286;2023-01-26T17:20:36;103185.22;;;12.48;100.00
23733;BME280;12047;53.450;-2.286;2023-01-26T17:31:11;103168.06;;;12.68;100.00
23733;BME280;12047;53.450;-2.286;2023-01-26T17:36:14;103173.38;;;13.40;100.00
23733;BME280;12047;53.450;-2.286;2023-01-26T17:41:23;103157.84;;;13.04;100.00
23733;BME280;12047;53.450;-2.286;2023-01-26T17:46:26;103137.41;;;12.76;100.00
23733;BME280;12047;53.450;-2.286;2023-01-26T17:51:27;103132.31;;;13.71;100.00
23733;BME280;12047;53.450;-2.286;2023-01-26T17:56:28;103137.50;;;13.46;100.00
23733;BME280;12047;53.450;-2.286;2023-01-26T18:01:33;103130.94;;;13.37;100.00
23733;BME280;12047;53.450;-2.286;2023-01-26T18:06:36;103131.59;;;13.41;100.00
23733;BME280;12047;53.450;-2.286;2023-01-26T18:11:40;103121.28;;;13.22;100.00
23733;BME280;12047;53.450;-2.286;2023-01-26T18:16:50;103125.44;;;12.98;100.00
23733;BME280;12047;53.450;-2.286;2023-01-26T18:21:56;103127.16;;;12.99;100.00
23733;BME280;12047;53.450;-2.286;2023-01-26T18:27:09;103118.59;;;12.79;100.00
23733;BME280;12047;53.450;-2.286;2023-01-26T18:32:13;103100.34;;;12.73;100.00
23733;BME280;12047;53.450;-2.286;2023-01-26T18:37:14;103110.56;;;12.65;100.00
23733;BME280;12047;53.450;-2.286;2023-01-26T18:42:21;103100.34;;;12.59;100.00
23733;BME280;12047;53.450;-2.286;2023-01-26T18:47:21;103094.03;;;12.46;100.00
23733;BME280;12047;53.450;-2.286;2023-01-26T18:52:23;103099.69;;;12.40;100.00
23733;BME280;12047;53.450;-2.286;2023-01-26T18:57:24;103106.28;;;12.04;100.00
23733;BME280;12047;53.450;-2.286;2023-01-26T19:02:25;103114.66;;;12.12;100.00
23733;BME280;12047;53.450;-2.286;2023-01-26T19:07:25;103128.84;;;12.71;100.00
23733;BME280;12047;53.450;-2.286;2023-01-26T19:12:26;103129.72;;;12.42;100.00
23733;BME280;12047;53.450;-2.286;2023-01-26T19:17:27;103134.56;;;12.05;100.00
23733;BME280;12047;53.450;-2.286;2023-01-26T19:22:28;103135.28;;;12.23;100.00
23733;BME280;12047;53.450;-2.286;2023-01-26T19:27:29;103145.94;;;11.76;100.00
23733;BME280;12047;53.450;-2.286;2023-01-26T19:32:30;103148.69;;;12.06;100.00
23733;BME280;12047;53.450;-2.286;2023-01-26T19:37:37;103146.03;;;11.74;100.00
23733;BME280;12047;53.450;-2.286;2023-01-26T19:53:58;103166.56;;;12.34;100.00
23733;BME280;12047;53.450;-2.286;2023-01-26T19:59:02;103176.22;;;12.05;100.00
23733;BME280;12047;53.450;-2.286;2023-01-26T20:04:06;103175.16;;;12.23;100.00
23733;BME280;12047;53.450;-2.286;2023-01-26T20:09:08;103173.22;;;12.41;100.00
23733;BME280;12047;53.450;-2.286;2023-01-26T20:14:09;103170.19;;;12.77;100.00
23733;BME280;12047;53.450;-2.286;2023-01-26T20:19:11;103167.63;;;11.68;100.00
23733;BME280;12047;53.450;-2.286;2023-01-26T20:24:14;103163.34;;;11.50;100.00
23733;BME280;12047;53.450;-2.286;2023-01-26T20:29:17;103147.00;;;12.05;100.00
23733;BME280;12047;53.450;-2.286;2023-01-26T20:34:18;103149.19;;;11.34;100.00
23733;BME280;12047;53.450;-2.286;2023-01-26T20:39:21;103141.06;;;11.52;100.00
23733;BME280;12047;53.450;-2.286;2023-01-26T20:44:24;103133.38;;;11.79;100.00
23733;BME280;12047;53.450;-2.286;2023-01-26T20:49:25;103134.50;;;11.59;100.00
23733;BME280;12047;53.450;-2.286;2023-01-26T20:54:25;103141.06;;;12.00;100.00
23733;BME280;12047;53.450;-2.286;2023-01-26T20:59:26;103139.97;;;12.04;100.00
23733;BME280;12047;53.450;-2.286;2023-01-26T21:04:27;103137.44;;;11.22;100.00
23733;BME280;12047;53.450;-2.286;2023-01-26T21:09:30;103142.69;;;11.71;100.00
23733;BME280;12047;53.450;-2.286;2023-01-26T21:14:32;103152.34;;;11.24;100.00
23733;BME280;12047;53.450;-2.286;2023-01-26T21:19:33;103157.19;;;12.12;100.00
23733;BME280;12047;53.450;-2.286;2023-01-26T21:24:34;103160.97;;;11.92;100.00
23733;BME280;12047;53.450;-2.286;2023-01-26T21:29:35;103163.88;;;11.88;100.00
23733;BME280;12047;53.450;-2.286;2023-01-26T21:34:35;103173.38;;;11.92;100.00
23733;BME280;12047;53.450;-2.286;2023-01-26T21:39:39;103174.94;;;11.96;100.00
23733;BME280;12047;53.450;-2.286;2023-01-26T21:44:39;103166.63;;;12.02;100.00
23733;BME280;12047;53.450;-2.286;2023-01-26T21:49:58;103166.59;;;11.55;100.00
23733;BME280;12047;53.450;-2.286;2023-01-26T21:54:59;103160.25;;;11.73;100.00
23733;BME280;12047;53.450;-2.286;2023-01-26T22:00:00;103152.75;;;11.81;100.00
23733;BME280;12047;53.450;-2.286;2023-01-26T22:05:03;103153.41;;;12.01;100.00
23733;BME280;12047;53.450;-2.286;2023-01-26T22:10:08;103141.47;;;12.38;100.00
23733;BME280;12047;53.450;-2.286;2023-01-26T22:15:09;103156.41;;;11.47;100.00
23733;BME280;12047;53.450;-2.286;2023-01-26T22:20:10;103151.69;;;11.52;100.00
23733;BME280;12047;53.450;-2.286;2023-01-26T22:25:12;103150.03;;;11.83;100.00
23733;BME280;12047;53.450;-2.286;2023-01-26T22:30:12;103150.06;;;11.66;100.00
23733;BME280;12047;53.450;-2.286;2023-01-26T22:35:13;103150.41;;;11.59;100.00
23733;BME280;12047;53.450;-2.286;2023-01-26T22:40:15;103146.03;;;11.90;100.00
23733;BME280;12047;53.450;-2.286;2023-01-26T22:45:15;103130.69;;;11.95;100.00
23733;BME280;12047;53.450;-2.286;2023-01-26T22:50:16;103135.19;;;12.24;100.00
23733;BME280;12047;53.450;-2.286;2023-01-26T22:55:17;103118.47;;;12.52;100.00
23733;BME280;12047;53.450;-2.286;2023-01-26T23:00:20;103118.47;;;11.77;100.00
23733;BME280;12047;53.450;-2.286;2023-01-26T23:05:24;103111.00;;;12.29;100.00
23733;BME280;12047;53.450;-2.286;2023-01-26T23:10:31;103105.25;;;11.91;100.00
23733;BME280;12047;53.450;-2.286;2023-01-26T23:15:37;103118.69;;;11.88;100.00
23733;BME280;12047;53.450;-2.286;2023-01-26T23:20:38;103106.56;;;12.14;100.00
23733;BME280;12047;53.450;-2.286;2023-01-26T23:25:39;103101.81;;;12.05;100.00
23733;BME280;12047;53.450;-2.286;2023-01-26T23:30:53;103109.50;;;12.09;100.00
23733;BME280;12047;53.450;-2.286;2023-01-26T23:35:55;103117.38;;;11.01;100.00
23733;BME280;12047;53.450;-2.286;2023-01-26T23:40:56;103113.31;;;11.27;100.00
23733;BME280;12047;53.450;-2.286;2023-01-26T23:46:02;103101.16;;;11.38;100.00
23733;BME280;12047;53.450;-2.286;2023-01-26T23:51:07;103105.03;;;11.00;100.00
23733;BME280;12047;53.450;-2.286;2023-01-26T23:56:13;103097.13;;;11.47;100.00
